HBZLJ LSXB-LSXB

Flight info

Callsign HBZLJ
Flight time 0h 2m
Altitude 1500
Route VFR LOCAL FLIGHT
Aircraft G2CA/L-S/L

Departure

Time 2026-05-07 15:25
Airport Balzers Heliport (LSXB)

Arrival

Time 2026-05-07 15:28
Airport Balzers Heliport (LSXB)
Time Latitude Longitude Altitude Speed Heading
2026-05-07 15:22 47.06799 9.48098 1603 ft 0 kts 330°
2026-05-07 15:25 47.06782 9.48080 1668 ft 9 kts 259°
2026-05-07 15:25 47.06672 9.47748 1826 ft 63 kts 256°
2026-05-07 15:25 47.06280 9.47309 1983 ft 87 kts 185°
2026-05-07 15:25 47.05766 9.47287 2266 ft 71 kts 177°
2026-05-07 15:26 47.05273 9.47399 2412 ft 78 kts 157°
2026-05-07 15:26 47.04828 9.47579 2757 ft 59 kts 166°
2026-05-07 15:26 47.04405 9.47704 2933 ft 66 kts 168°
2026-05-07 15:26 47.03955 9.47807 2900 ft 72 kts 162°
2026-05-07 15:27 47.03366 9.47833 2951 ft 92 kts 183°
2026-05-07 15:27 47.02709 9.47718 2751 ft 92 kts 190°
2026-05-07 15:27 47.02069 9.47566 2481 ft 84 kts 194°
2026-05-07 15:27 47.01583 9.47855 1843 ft 67 kts 109°
2026-05-07 15:28 47.01506 9.48145 1754 ft 22 kts 43°
2026-05-07 15:28 47.01512 9.48285 1671 ft 4 kts 117°
2026-05-07 15:28 47.01503 9.48301 1659 ft 1 kts 191°
2026-05-07 15:28 47.01502 9.48302 1654 ft 0 kts 189°
2026-05-07 15:29 47.01501 9.48300 1660 ft 3 kts 136°
2026-05-07 15:29 47.01389 9.48437 1742 ft 59 kts 120°
2026-05-07 15:29 47.01176 9.49097 2050 ft 73 kts 109°
2026-05-07 15:30 47.01095 9.49782 2409 ft 71 kts 84°
2026-05-07 15:30 47.01449 9.50238 2601 ft 71 kts
2026-05-07 15:30 47.01893 9.49994 2908 ft 63 kts 341°
2026-05-07 15:30 47.02372 9.49666 2977 ft 80 kts 336°
2026-05-07 15:31 47.02848 9.49209 3046 ft 91 kts 340°
2026-05-07 15:31 47.03464 9.48756 2834 ft 99 kts 343°
2026-05-07 15:31 47.04042 9.48313 2835 ft 95 kts 340°
2026-05-07 15:31 47.04634 9.47860 2758 ft 95 kts 342°
2026-05-07 15:32 47.05239 9.47476 2729 ft 95 kts 342°
2026-05-07 15:32 47.05816 9.47311 2372 ft 84 kts
2026-05-07 15:32 47.06351 9.47346 2043 ft 75 kts 28°
2026-05-07 15:32 47.06662 9.47798 1773 ft 45 kts 76°
2026-05-07 15:33 47.06777 9.48087 1630 ft 13 kts
2026-05-07 15:33 47.06799 9.48098 1603 ft 1 kts 328°
2026-05-07 15:33 47.06798 9.48097 1603 ft 0 kts 336°